sensor_id;sensor_type;location;lat;lon;timestamp;pressure;altitude;pressure_sealevel;temperature;humidity
59419;BME280;45224;50.904;6.038;2023-05-20T00:01:23;100438.34;;;13.54;55.43
59419;BME280;45224;50.904;6.038;2023-05-20T00:02:53;100440.09;;;13.55;55.42
59419;BME280;45224;50.904;6.038;2023-05-20T00:04:24;100439.22;;;13.59;55.20
59419;BME280;45224;50.904;6.038;2023-05-20T00:05:54;100427.94;;;13.63;55.14
59419;BME280;45224;50.904;6.038;2023-05-20T00:07:25;100434.84;;;13.70;54.70
59419;BME280;45224;50.904;6.038;2023-05-20T00:08:55;100435.69;;;13.76;54.55
59419;BME280;45224;50.904;6.038;2023-05-20T00:10:26;100435.69;;;13.77;54.70
59419;BME280;45224;50.904;6.038;2023-05-20T00:11:56;100423.59;;;13.78;54.53
59419;BME280;45224;50.904;6.038;2023-05-20T00:13:27;100431.38;;;13.81;54.36
59419;BME280;45224;50.904;6.038;2023-05-20T00:14:57;100434.84;;;13.80;54.63
59419;BME280;45224;50.904;6.038;2023-05-20T00:16:28;100433.97;;;13.82;54.57
59419;BME280;45224;50.904;6.038;2023-05-20T00:18:02;100429.63;;;13.83;54.40
59419;BME280;45224;50.904;6.038;2023-05-20T00:19:33;100422.69;;;13.85;54.12
59419;BME280;45224;50.904;6.038;2023-05-20T00:21:03;100415.78;;;13.81;54.45
59419;BME280;45224;50.904;6.038;2023-05-20T00:22:34;100418.41;;;13.72;54.99
59419;BME280;45224;50.904;6.038;2023-05-20T00:24:04;100421.84;;;13.69;55.08
59419;BME280;45224;50.904;6.038;2023-05-20T00:25:35;100434.84;;;13.70;54.87
59419;BME280;45224;50.904;6.038;2023-05-20T00:27:05;100430.53;;;13.66;55.00
59419;BME280;45224;50.904;6.038;2023-05-20T00:28:36;100434.91;;;13.55;56.28
59419;BME280;45224;50.904;6.038;2023-05-20T00:30:07;100440.09;;;13.37;56.62
59419;BME280;45224;50.904;6.038;2023-05-20T00:31:38;100435.75;;;13.25;57.96
59419;BME280;45224;50.904;6.038;2023-05-20T00:33:09;100437.50;;;13.12;57.99
59419;BME280;45224;50.904;6.038;2023-05-20T00:34:42;100430.59;;;13.02;58.47
59419;BME280;45224;50.904;6.038;2023-05-20T00:36:12;100427.09;;;12.95;58.71
59419;BME280;45224;50.904;6.038;2023-05-20T00:37:43;100425.38;;;12.89;58.97
59419;BME280;45224;50.904;6.038;2023-05-20T00:39:13;100429.72;;;12.90;58.73
59419;BME280;45224;50.904;6.038;2023-05-20T00:40:44;100432.31;;;12.83;58.95
59419;BME280;45224;50.904;6.038;2023-05-20T00:42:21;100429.66;;;12.59;60.26
59419;BME280;45224;50.904;6.038;2023-05-20T00:43:53;100433.16;;;12.65;59.96
59419;BME280;45224;50.904;6.038;2023-05-20T00:45:24;100435.69;;;12.51;60.58
59419;BME280;45224;50.904;6.038;2023-05-20T00:46:55;100439.16;;;12.51;60.41
59419;BME280;45224;50.904;6.038;2023-05-20T00:48:32;100427.91;;;12.45;61.03
59419;BME280;45224;50.904;6.038;2023-05-20T00:50:08;100439.13;;;12.37;61.36
59419;BME280;45224;50.904;6.038;2023-05-20T00:51:39;100425.28;;;12.29;61.40
59419;BME280;45224;50.904;6.038;2023-05-20T00:53:10;100420.91;;;12.20;62.34
59419;BME280;45224;50.904;6.038;2023-05-20T00:54:40;100427.88;;;12.28;61.67
59419;BME280;45224;50.904;6.038;2023-05-20T00:56:11;100424.38;;;12.29;61.92
59419;BME280;45224;50.904;6.038;2023-05-20T00:57:42;100426.09;;;12.11;62.82
59419;BME280;45224;50.904;6.038;2023-05-20T00:59:13;100426.06;;;12.08;63.27
59419;BME280;45224;50.904;6.038;2023-05-20T01:00:43;100429.56;;;12.16;62.51
59419;BME280;45224;50.904;6.038;2023-05-20T01:02:14;100431.25;;;12.17;62.27
59419;BME280;45224;50.904;6.038;2023-05-20T01:03:45;100429.53;;;12.13;63.09
59419;BME280;45224;50.904;6.038;2023-05-20T01:05:16;100425.25;;;12.26;61.98
59419;BME280;45224;50.904;6.038;2023-05-20T01:06:46;100424.44;;;12.41;61.41
59419;BME280;45224;50.904;6.038;2023-05-20T01:08:17;100416.69;;;12.47;60.80
59419;BME280;45224;50.904;6.038;2023-05-20T01:09:48;100425.31;;;12.51;61.12
59419;BME280;45224;50.904;6.038;2023-05-20T01:11:25;100415.75;;;12.30;62.62
59419;BME280;45224;50.904;6.038;2023-05-20T01:13:01;100417.50;;;12.40;62.04
59419;BME280;45224;50.904;6.038;2023-05-20T01:14:36;100421.78;;;12.26;62.95
59419;BME280;45224;50.904;6.038;2023-05-20T01:16:07;100415.69;;;12.08;63.64
59419;BME280;45224;50.904;6.038;2023-05-20T01:17:46;100415.69;;;12.08;63.38
59419;BME280;45224;50.904;6.038;2023-05-20T01:19:26;100418.13;;;11.85;64.32
59419;BME280;45224;50.904;6.038;2023-05-20T01:21:04;100423.28;;;11.80;64.39
59419;BME280;45224;50.904;6.038;2023-05-20T01:22:38;100419.84;;;11.81;64.66
59419;BME280;45224;50.904;6.038;2023-05-20T01:24:09;100419.00;;;11.82;64.70
59419;BME280;45224;50.904;6.038;2023-05-20T01:25:39;100423.34;;;11.90;63.84
59419;BME280;45224;50.904;6.038;2023-05-20T01:27:11;100416.41;;;11.79;64.43
59419;BME280;45224;50.904;6.038;2023-05-20T01:28:44;100419.00;;;11.79;64.41
59419;BME280;45224;50.904;6.038;2023-05-20T01:30:15;100420.72;;;11.76;64.83
59419;BME280;45224;50.904;6.038;2023-05-20T01:31:46;100418.03;;;11.60;65.54
59419;BME280;45224;50.904;6.038;2023-05-20T01:33:19;100408.59;;;11.73;64.75
59419;BME280;45224;50.904;6.038;2023-05-20T01:34:51;100407.72;;;11.69;64.84
59419;BME280;45224;50.904;6.038;2023-05-20T01:36:22;100412.00;;;11.69;65.29
59419;BME280;45224;50.904;6.038;2023-05-20T01:37:54;100409.47;;;11.77;64.91
59419;BME280;45224;50.904;6.038;2023-05-20T01:39:25;100412.94;;;11.77;64.96
59419;BME280;45224;50.904;6.038;2023-05-20T01:40:57;100412.97;;;11.86;64.12
59419;BME280;45224;50.904;6.038;2023-05-20T01:42:28;100409.53;;;11.86;64.15
59419;BME280;45224;50.904;6.038;2023-05-20T01:43:59;100406.13;;;11.95;63.49
59419;BME280;45224;50.904;6.038;2023-05-20T01:45:30;100411.25;;;11.85;64.40
59419;BME280;45224;50.904;6.038;2023-05-20T01:47:01;100400.94;;;11.93;64.08
59419;BME280;45224;50.904;6.038;2023-05-20T01:48:31;100407.88;;;11.99;63.54
59419;BME280;45224;50.904;6.038;2023-05-20T01:50:02;100400.09;;;11.96;64.12
59419;BME280;45224;50.904;6.038;2023-05-20T01:51:33;100403.41;;;11.70;65.20
59419;BME280;45224;50.904;6.038;2023-05-20T01:53:04;100399.06;;;11.67;65.84
59419;BME280;45224;50.904;6.038;2023-05-20T01:54:35;100397.41;;;11.85;64.17
59419;BME280;45224;50.904;6.038;2023-05-20T01:56:06;100405.16;;;11.80;64.72
59419;BME280;45224;50.904;6.038;2023-05-20T01:57:36;100399.19;;;11.89;64.06
59419;BME280;45224;50.904;6.038;2023-05-20T01:59:08;100395.69;;;11.81;65.23
59419;BME280;45224;50.904;6.038;2023-05-20T02:00:39;100398.28;;;11.82;64.58
59419;BME280;45224;50.904;6.038;2023-05-20T02:02:09;100396.56;;;11.87;64.38
59419;BME280;45224;50.904;6.038;2023-05-20T02:03:40;100389.72;;;11.96;63.62
59419;BME280;45224;50.904;6.038;2023-05-20T02:05:10;100395.69;;;11.79;64.85
59419;BME280;45224;50.904;6.038;2023-05-20T02:06:41;100391.38;;;11.84;64.46
59419;BME280;45224;50.904;6.038;2023-05-20T02:08:11;100398.28;;;11.82;64.48
59419;BME280;45224;50.904;6.038;2023-05-20T02:09:42;100393.91;;;11.72;65.43
59419;BME280;45224;50.904;6.038;2023-05-20T02:11:12;100389.63;;;11.74;64.87
59419;BME280;45224;50.904;6.038;2023-05-20T02:12:43;100395.66;;;11.73;65.21
59419;BME280;45224;50.904;6.038;2023-05-20T02:14:13;100396.56;;;11.84;64.14
59419;BME280;45224;50.904;6.038;2023-05-20T02:15:44;100395.69;;;11.82;64.02
59419;BME280;45224;50.904;6.038;2023-05-20T02:17:16;100391.31;;;11.75;65.09
59419;BME280;45224;50.904;6.038;2023-05-20T02:18:46;100388.72;;;11.72;64.30
59419;BME280;45224;50.904;6.038;2023-05-20T02:20:20;100393.03;;;11.70;65.15
59419;BME280;45224;50.904;6.038;2023-05-20T02:21:51;100393.88;;;11.64;65.26
59419;BME280;45224;50.904;6.038;2023-05-20T02:23:22;100392.97;;;11.58;65.90
59419;BME280;45224;50.904;6.038;2023-05-20T02:24:52;100391.25;;;11.60;65.34
59419;BME280;45224;50.904;6.038;2023-05-20T02:26:23;100389.56;;;11.65;65.08
59419;BME280;45224;50.904;6.038;2023-05-20T02:27:54;100387.78;;;11.55;66.08
59419;BME280;45224;50.904;6.038;2023-05-20T02:29:24;100397.28;;;11.56;65.64
59419;BME280;45224;50.904;6.038;2023-05-20T02:30:55;100387.78;;;11.58;65.60
59419;BME280;45224;50.904;6.038;2023-05-20T02:32:26;100396.44;;;11.57;65.49
59419;BME280;45224;50.904;6.038;2023-05-20T02:33:58;100384.31;;;11.52;65.57
59419;BME280;45224;50.904;6.038;2023-05-20T02:35:28;100387.81;;;11.64;65.10
59419;BME280;45224;50.904;6.038;2023-05-20T02:36:59;100389.56;;;11.68;64.90
59419;BME280;45224;50.904;6.038;2023-05-20T02:38:30;100392.97;;;11.55;65.58
59419;BME280;45224;50.904;6.038;2023-05-20T02:40:01;100395.47;;;11.42;66.91
59419;BME280;45224;50.904;6.038;2023-05-20T02:41:32;100382.59;;;11.51;65.78
59419;BME280;45224;50.904;6.038;2023-05-20T02:43:03;100394.63;;;11.46;66.79
59419;BME280;45224;50.904;6.038;2023-05-20T02:44:34;100382.56;;;11.47;65.71
59419;BME280;45224;50.904;6.038;2023-05-20T02:46:05;100379.97;;;11.48;65.99
59419;BME280;45224;50.904;6.038;2023-05-20T02:47:36;100386.03;;;11.50;65.74
59419;BME280;45224;50.904;6.038;2023-05-20T02:49:08;100386.88;;;11.52;65.74
59419;BME280;45224;50.904;6.038;2023-05-20T02:50:39;100377.41;;;11.48;66.19
59419;BME280;45224;50.904;6.038;2023-05-20T02:52:09;100384.28;;;11.49;66.21
59419;BME280;45224;50.904;6.038;2023-05-20T02:53:40;100377.38;;;11.45;65.73
59419;BME280;45224;50.904;6.038;2023-05-20T02:55:11;100376.50;;;11.48;65.89
59419;BME280;45224;50.904;6.038;2023-05-20T02:56:41;100380.63;;;11.17;67.96
59419;BME280;45224;50.904;6.038;2023-05-20T02:58:12;100382.34;;;11.14;67.43
59419;BME280;45224;50.904;6.038;2023-05-20T02:59:42;100379.81;;;11.24;67.17
59419;BME280;45224;50.904;6.038;2023-05-20T03:01:13;100375.41;;;11.12;67.68
59419;BME280;45224;50.904;6.038;2023-05-20T03:02:43;100380.75;;;11.30;66.77
59419;BME280;45224;50.904;6.038;2023-05-20T03:04:14;100377.25;;;11.30;66.81
59419;BME280;45224;50.904;6.038;2023-05-20T03:05:45;100381.50;;;11.17;67.73
59419;BME280;45224;50.904;6.038;2023-05-20T03:07:15;100375.34;;;11.01;68.38
59419;BME280;45224;50.904;6.038;2023-05-20T03:08:48;100374.44;;;10.98;68.71
59419;BME280;45224;50.904;6.038;2023-05-20T03:10:19;100377.97;;;11.06;68.11
59419;BME280;45224;50.904;6.038;2023-05-20T03:11:50;100373.72;;;11.15;67.50
59419;BME280;45224;50.904;6.038;2023-05-20T03:13:20;100371.13;;;11.14;67.58
59419;BME280;45224;50.904;6.038;2023-05-20T03:14:51;100370.31;;;11.23;67.12
59419;BME280;45224;50.904;6.038;2023-05-20T03:16:25;100373.69;;;11.12;67.48
59419;BME280;45224;50.904;6.038;2023-05-20T03:17:57;100363.28;;;11.00;68.37
59419;BME280;45224;50.904;6.038;2023-05-20T03:19:27;100373.69;;;11.09;68.00
59419;BME280;45224;50.904;6.038;2023-05-20T03:20:58;100372.00;;;11.14;67.72
59419;BME280;45224;50.904;6.038;2023-05-20T03:22:28;100372.88;;;11.18;67.21
59419;BME280;45224;50.904;6.038;2023-05-20T03:23:59;100373.69;;;11.09;68.17
59419;BME280;45224;50.904;6.038;2023-05-20T03:25:30;100362.47;;;11.12;67.22
59419;BME280;45224;50.904;6.038;2023-05-20T03:27:01;100371.84;;;10.96;69.45
59419;BME280;45224;50.904;6.038;2023-05-20T03:28:32;100375.19;;;10.83;69.53
59419;BME280;45224;50.904;6.038;2023-05-20T03:30:03;100367.53;;;10.93;68.71
59419;BME280;45224;50.904;6.038;2023-05-20T03:31:35;100367.53;;;10.93;69.13
59419;BME280;45224;50.904;6.038;2023-05-20T03:33:06;100367.56;;;10.95;68.50
59419;BME280;45224;50.904;6.038;2023-05-20T03:34:37;100370.16;;;10.98;68.31
59419;BME280;45224;50.904;6.038;2023-05-20T03:36:08;100369.25;;;10.93;69.05
59419;BME280;45224;50.904;6.038;2023-05-20T03:37:38;100364.78;;;10.75;69.65
59419;BME280;45224;50.904;6.038;2023-05-20T03:39:09;100368.94;;;10.57;71.14
59419;BME280;45224;50.904;6.038;2023-05-20T03:40:40;100369.84;;;10.61;70.69
59419;BME280;45224;50.904;6.038;2023-05-20T03:42:10;100366.41;;;10.64;70.87
59419;BME280;45224;50.904;6.038;2023-05-20T03:43:41;100370.56;;;10.48;71.54
59419;BME280;45224;50.904;6.038;2023-05-20T03:45:12;100376.34;;;10.25;72.49
59419;BME280;45224;50.904;6.038;2023-05-20T03:46:55;100371.16;;;10.23;72.93
59419;BME280;45224;50.904;6.038;2023-05-20T03:48:26;100381.50;;;10.25;73.02
59419;BME280;45224;50.904;6.038;2023-05-20T03:49:57;100362.47;;;10.15;73.60
59419;BME280;45224;50.904;6.038;2023-05-20T03:51:28;100372.81;;;10.17;73.66
59419;BME280;45224;50.904;6.038;2023-05-20T03:53:09;100377.97;;;10.17;73.59
59419;BME280;45224;50.904;6.038;2023-05-20T03:54:45;100379.59;;;10.09;74.24
59419;BME280;45224;50.904;6.038;2023-05-20T03:56:15;100370.00;;;9.95;74.88
59419;BME280;45224;50.904;6.038;2023-05-20T03:57:46;100370.84;;;9.96;74.97
59419;BME280;45224;50.904;6.038;2023-05-20T03:59:18;100374.19;;;9.87;75.16
59419;BME280;45224;50.904;6.038;2023-05-20T04:00:49;100371.53;;;9.81;75.87
59419;BME280;45224;50.904;6.038;2023-05-20T04:02:19;100376.03;;;9.96;75.21
59419;BME280;45224;50.904;6.038;2023-05-20T04:03:50;100373.47;;;9.99;74.94
59419;BME280;45224;50.904;6.038;2023-05-20T04:05:22;100371.69;;;9.92;75.78
59419;BME280;45224;50.904;6.038;2023-05-20T04:06:54;100370.69;;;9.82;76.01
59419;BME280;45224;50.904;6.038;2023-05-20T04:08:29;100369.78;;;9.78;76.55
59419;BME280;45224;50.904;6.038;2023-05-20T04:10:01;100372.34;;;9.77;76.33
59419;BME280;45224;50.904;6.038;2023-05-20T04:11:32;100366.34;;;9.79;76.37
59419;BME280;45224;50.904;6.038;2023-05-20T04:13:03;100358.50;;;9.72;77.12
59419;BME280;45224;50.904;6.038;2023-05-20T04:14:33;100359.34;;;9.69;77.01
59419;BME280;45224;50.904;6.038;2023-05-20T04:16:05;100363.59;;;9.65;77.29
59419;BME280;45224;50.904;6.038;2023-05-20T04:17:35;100357.41;;;9.54;77.60
59419;BME280;45224;50.904;6.038;2023-05-20T04:19:08;100367.06;;;9.66;77.67
59419;BME280;45224;50.904;6.038;2023-05-20T04:20:38;100368.03;;;9.76;77.17
59419;BME280;45224;50.904;6.038;2023-05-20T04:22:11;100368.72;;;9.62;77.21
59419;BME280;45224;50.904;6.038;2023-05-20T04:23:42;100370.50;;;9.66;77.60
59419;BME280;45224;50.904;6.038;2023-05-20T04:25:13;100363.50;;;9.56;78.00
59419;BME280;45224;50.904;6.038;2023-05-20T04:26:44;100370.38;;;9.57;77.98
59419;BME280;45224;50.904;6.038;2023-05-20T04:28:15;100370.31;;;9.54;78.35
59419;BME280;45224;50.904;6.038;2023-05-20T04:29:46;100367.75;;;9.54;78.33
59419;BME280;45224;50.904;6.038;2023-05-20T04:31:17;100363.44;;;9.53;78.41
59419;BME280;45224;50.904;6.038;2023-05-20T04:32:51;100362.56;;;9.54;78.82
59419;BME280;45224;50.904;6.038;2023-05-20T04:34:23;100365.38;;;9.69;78.11
59419;BME280;45224;50.904;6.038;2023-05-20T04:35:56;100361.84;;;9.61;78.51
59419;BME280;45224;50.904;6.038;2023-05-20T04:37:28;100360.25;;;9.73;77.94
59419;BME280;45224;50.904;6.038;2023-05-20T04:38:58;100370.63;;;9.76;77.61
59419;BME280;45224;50.904;6.038;2023-05-20T04:40:29;100374.97;;;9.81;77.44
59419;BME280;45224;50.904;6.038;2023-05-20T04:41:59;100369.00;;;9.84;77.14
59419;BME280;45224;50.904;6.038;2023-05-20T04:43:30;100369.13;;;9.96;76.73
59419;BME280;45224;50.904;6.038;2023-05-20T04:45:03;100373.16;;;9.73;77.79
59419;BME280;45224;50.904;6.038;2023-05-20T04:46:35;100368.22;;;9.93;77.14
59419;BME280;45224;50.904;6.038;2023-05-20T04:48:05;100368.16;;;9.88;77.46
59419;BME280;45224;50.904;6.038;2023-05-20T04:49:36;100368.97;;;9.81;77.77
59419;BME280;45224;50.904;6.038;2023-05-20T04:51:07;100370.78;;;9.90;77.18
59419;BME280;45224;50.904;6.038;2023-05-20T04:52:39;100370.84;;;9.94;77.44
59419;BME280;45224;50.904;6.038;2023-05-20T04:54:11;100375.31;;;10.11;76.54
59419;BME280;45224;50.904;6.038;2023-05-20T04:55:41;100366.03;;;10.28;75.91
59419;BME280;45224;50.904;6.038;2023-05-20T04:57:12;100362.53;;;10.21;76.32
59419;BME280;45224;50.904;6.038;2023-05-20T04:58:43;100369.50;;;10.27;75.75
59419;BME280;45224;50.904;6.038;2023-05-20T05:00:14;100368.56;;;10.23;76.46
59419;BME280;45224;50.904;6.038;2023-05-20T05:01:45;100364.31;;;10.30;76.36
59419;BME280;45224;50.904;6.038;2023-05-20T05:03:16;100366.13;;;10.34;76.20
59419;BME280;45224;50.904;6.038;2023-05-20T05:04:47;100372.72;;;10.11;77.37
59419;BME280;45224;50.904;6.038;2023-05-20T05:06:18;100369.31;;;10.12;77.88
59419;BME280;45224;50.904;6.038;2023-05-20T05:07:49;100367.59;;;10.14;77.86
59419;BME280;45224;50.904;6.038;2023-05-20T05:09:19;100366.97;;;10.33;76.90
59419;BME280;45224;50.904;6.038;2023-05-20T05:10:50;100365.16;;;10.26;77.68
59419;BME280;45224;50.904;6.038;2023-05-20T05:12:21;100353.13;;;10.30;77.02
59419;BME280;45224;50.904;6.038;2023-05-20T05:13:51;100355.69;;;10.28;77.66
59419;BME280;45224;50.904;6.038;2023-05-20T05:15:27;100354.13;;;10.39;77.46
59419;BME280;45224;50.904;6.038;2023-05-20T05:16:57;100361.09;;;10.47;77.39
59419;BME280;45224;50.904;6.038;2023-05-20T05:18:28;100364.69;;;10.61;76.29
59419;BME280;45224;50.904;6.038;2023-05-20T05:19:58;100359.53;;;10.64;76.78
59419;BME280;45224;50.904;6.038;2023-05-20T05:21:31;100356.97;;;10.70;76.75
59419;BME280;45224;50.904;6.038;2023-05-20T05:23:02;100354.47;;;10.76;76.31
59419;BME280;45224;50.904;6.038;2023-05-20T05:24:32;100359.75;;;10.89;75.27
59419;BME280;45224;50.904;6.038;2023-05-20T05:26:04;100358.06;;;10.95;76.24
59419;BME280;45224;50.904;6.038;2023-05-20T05:27:34;100357.97;;;10.85;76.08
59419;BME280;45224;50.904;6.038;2023-05-20T05:29:05;100352.97;;;11.05;75.26
59419;BME280;45224;50.904;6.038;2023-05-20T05:30:36;100351.19;;;11.02;75.54
59419;BME280;45224;50.904;6.038;2023-05-20T05:32:06;100348.75;;;11.18;75.05
59419;BME280;45224;50.904;6.038;2023-05-20T05:33:37;100360.78;;;11.19;75.32
59419;BME280;45224;50.904;6.038;2023-05-20T05:35:08;100357.28;;;11.10;75.52
59419;BME280;45224;50.904;6.038;2023-05-20T05:36:39;100343.56;;;11.24;74.88
59419;BME280;45224;50.904;6.038;2023-05-20T05:38:10;100346.22;;;11.33;74.98
59419;BME280;45224;50.904;6.038;2023-05-20T05:39:40;100343.66;;;11.36;74.98
59419;BME280;45224;50.904;6.038;2023-05-20T05:41:12;100343.72;;;11.47;74.59
59419;BME280;45224;50.904;6.038;2023-05-20T05:42:42;100346.31;;;11.45;74.96
59419;BME280;45224;50.904;6.038;2023-05-20T05:44:13;100348.03;;;11.49;75.14
59419;BME280;45224;50.904;6.038;2023-05-20T05:45:44;100348.97;;;11.67;74.64
59419;BME280;45224;50.904;6.038;2023-05-20T05:47:15;100355.06;;;11.78;73.88
59419;BME280;45224;50.904;6.038;2023-05-20T05:48:45;100340.38;;;11.79;74.46
59419;BME280;45224;50.904;6.038;2023-05-20T05:50:18;100346.50;;;11.92;73.76
59419;BME280;45224;50.904;6.038;2023-05-20T05:51:51;100341.19;;;11.61;74.05
59419;BME280;45224;50.904;6.038;2023-05-20T05:53:22;100346.41;;;11.72;74.25
59419;BME280;45224;50.904;6.038;2023-05-20T05:54:53;100348.13;;;11.65;74.34
59419;BME280;45224;50.904;6.038;2023-05-20T05:56:23;100343.84;;;11.75;73.60
59419;BME280;45224;50.904;6.038;2023-05-20T05:57:54;100343.91;;;11.90;73.83
59419;BME280;45224;50.904;6.038;2023-05-20T05:59:26;100347.41;;;12.06;72.61
59419;BME280;45224;50.904;6.038;2023-05-20T06:00:56;100356.13;;;12.30;70.86
59419;BME280;45224;50.904;6.038;2023-05-20T06:02:27;100349.09;;;11.92;72.10
59419;BME280;45224;50.904;6.038;2023-05-20T06:03:58;100346.56;;;12.01;71.80
59419;BME280;45224;50.904;6.038;2023-05-20T06:05:30;100342.22;;;12.04;72.21
59419;BME280;45224;50.904;6.038;2023-05-20T06:07:01;100344.84;;;12.00;72.20
59419;BME280;45224;50.904;6.038;2023-05-20T06:08:31;100351.78;;;12.13;71.97
59419;BME280;45224;50.904;6.038;2023-05-20T06:10:02;100347.47;;;12.20;72.07
59419;BME280;45224;50.904;6.038;2023-05-20T06:11:33;100344.03;;;12.21;71.75
59419;BME280;45224;50.904;6.038;2023-05-20T06:13:04;100357.88;;;12.29;71.29
59419;BME280;45224;50.904;6.038;2023-05-20T06:14:35;100352.66;;;12.21;71.47
59419;BME280;45224;50.904;6.038;2023-05-20T06:16:05;100344.91;;;12.37;70.67
59419;BME280;45224;50.904;6.038;2023-05-20T06:17:36;100345.81;;;12.65;70.08
59419;BME280;45224;50.904;6.038;2023-05-20T06:19:06;100343.22;;;12.79;69.58
59419;BME280;45224;50.904;6.038;2023-05-20T06:20:38;100340.59;;;12.84;69.03
59419;BME280;45224;50.904;6.038;2023-05-20T06:22:09;100341.47;;;12.78;69.56
59419;BME280;45224;50.904;6.038;2023-05-20T06:23:39;100344.94;;;12.58;69.14
59419;BME280;45224;50.904;6.038;2023-05-20T06:25:13;100338.84;;;12.98;68.35
59419;BME280;45224;50.904;6.038;2023-05-20T06:26:44;100338.00;;;13.01;67.79
59419;BME280;45224;50.904;6.038;2023-05-20T06:28:15;100345.78;;;13.10;67.79
59419;BME280;45224;50.904;6.038;2023-05-20T06:29:46;100338.00;;;13.05;68.17
59419;BME280;45224;50.904;6.038;2023-05-20T06:31:16;100342.34;;;12.97;67.85
59419;BME280;45224;50.904;6.038;2023-05-20T06:32:47;100341.44;;;13.10;67.49
59419;BME280;45224;50.904;6.038;2023-05-20T06:34:19;100339.75;;;13.02;67.87
59419;BME280;45224;50.904;6.038;2023-05-20T06:35:51;100336.19;;;13.30;67.26
59419;BME280;45224;50.904;6.038;2023-05-20T06:37:21;100339.72;;;13.08;67.68
59419;BME280;45224;50.904;6.038;2023-05-20T06:38:55;100332.75;;;13.41;66.70
59419;BME280;45224;50.904;6.038;2023-05-20T06:40:29;100327.56;;;13.31;66.84
59419;BME280;45224;50.904;6.038;2023-05-20T06:41:59;100340.47;;;13.59;65.73
59419;BME280;45224;50.904;6.038;2023-05-20T06:43:38;100330.16;;;13.39;66.79
59419;BME280;45224;50.904;6.038;2023-05-20T06:45:32;100340.50;;;13.53;66.41
59419;BME280;45224;50.904;6.038;2023-05-20T06:47:20;100332.69;;;13.53;67.08
59419;BME280;45224;50.904;6.038;2023-05-20T06:48:52;100330.00;;;13.84;65.55
59419;BME280;45224;50.904;6.038;2023-05-20T06:50:23;100326.44;;;14.06;65.15
59419;BME280;45224;50.904;6.038;2023-05-20T06:51:55;100320.31;;;14.11;65.21
59419;BME280;45224;50.904;6.038;2023-05-20T06:53:25;100320.16;;;14.35;63.93
59419;BME280;45224;50.904;6.038;2023-05-20T06:54:56;100305.31;;;14.50;63.74
59419;BME280;45224;50.904;6.038;2023-05-20T06:56:27;100318.22;;;14.68;63.20
59419;BME280;45224;50.904;6.038;2023-05-20T06:57:58;100311.31;;;14.61;63.34
59419;BME280;45224;50.904;6.038;2023-05-20T06:59:29;100299.97;;;14.73;63.16
59419;BME280;45224;50.904;6.038;2023-05-20T07:00:59;100307.69;;;14.77;63.05
59419;BME280;45224;50.904;6.038;2023-05-20T07:02:32;100306.78;;;14.85;62.23
59419;BME280;45224;50.904;6.038;2023-05-20T07:04:03;100304.25;;;14.75;62.53
59419;BME280;45224;50.904;6.038;2023-05-20T07:05:33;100309.31;;;14.92;62.80
59419;BME280;45224;50.904;6.038;2023-05-20T07:07:04;100310.88;;;15.10;60.90
59419;BME280;45224;50.904;6.038;2023-05-20T07:08:35;100307.28;;;15.21;60.63
59419;BME280;45224;50.904;6.038;2023-05-20T07:10:06;100309.13;;;15.09;61.15
59419;BME280;45224;50.904;6.038;2023-05-20T07:11:37;100313.91;;;14.56;63.32
59419;BME280;45224;50.904;6.038;2023-05-20T07:13:07;100311.31;;;14.58;62.54
59419;BME280;45224;50.904;6.038;2023-05-20T07:14:38;100304.94;;;14.96;62.47
59419;BME280;45224;50.904;6.038;2023-05-20T07:16:09;100303.03;;;15.12;62.78
59419;BME280;45224;50.904;6.038;2023-05-20T07:17:42;100310.50;;;15.44;60.78
59419;BME280;45224;50.904;6.038;2023-05-20T07:19:12;100312.00;;;15.64;60.57
59419;BME280;45224;50.904;6.038;2023-05-20T07:20:43;100304.06;;;15.73;59.76
59419;BME280;45224;50.904;6.038;2023-05-20T07:22:21;100308.38;;;15.77;58.27
59419;BME280;45224;50.904;6.038;2023-05-20T07:23:59;100306.69;;;15.76;58.62
59419;BME280;45224;50.904;6.038;2023-05-20T07:25:30;100302.84;;;16.02;58.20
59419;BME280;45224;50.904;6.038;2023-05-20T07:27:00;100296.66;;;16.08;57.39
59419;BME280;45224;50.904;6.038;2023-05-20T07:28:31;100295.78;;;16.10;56.81
59419;BME280;45224;50.904;6.038;2023-05-20T07:30:02;100293.94;;;16.17;56.44
59419;BME280;45224;50.904;6.038;2023-05-20T07:31:34;100290.38;;;16.21;57.01
59419;BME280;45224;50.904;6.038;2023-05-20T07:33:05;100289.19;;;16.40;57.67
59419;BME280;45224;50.904;6.038;2023-05-20T07:34:36;100291.38;;;16.14;57.46
59419;BME280;45224;50.904;6.038;2023-05-20T07:36:07;100301.81;;;16.12;57.33
59419;BME280;45224;50.904;6.038;2023-05-20T07:37:37;100286.69;;;16.36;56.36
59419;BME280;45224;50.904;6.038;2023-05-20T07:39:08;100292.31;;;16.06;56.69
59419;BME280;45224;50.904;6.038;2023-05-20T07:40:40;100296.03;;;16.49;55.84
59419;BME280;45224;50.904;6.038;2023-05-20T07:42:11;100299.44;;;16.53;54.88
59419;BME280;45224;50.904;6.038;2023-05-20T07:43:45;100287.25;;;15.99;57.01
59419;BME280;45224;50.904;6.038;2023-05-20T07:45:16;100294.16;;;16.00;57.31
59419;BME280;45224;50.904;6.038;2023-05-20T07:46:47;100283.31;;;16.28;56.50
59419;BME280;45224;50.904;6.038;2023-05-20T07:48:18;100295.84;;;16.60;56.17
59419;BME280;45224;50.904;6.038;2023-05-20T07:49:48;100298.59;;;16.52;55.98
59419;BME280;45224;50.904;6.038;2023-05-20T07:51:19;100293.28;;;16.58;56.01
59419;BME280;45224;50.904;6.038;2023-05-20T07:52:49;100306.44;;;17.04;55.14
59419;BME280;45224;50.904;6.038;2023-05-20T07:54:20;100292.16;;;17.23;53.18
59419;BME280;45224;50.904;6.038;2023-05-20T07:55:53;100286.88;;;17.26;53.13
59419;BME280;45224;50.904;6.038;2023-05-20T07:57:24;100280.44;;;16.97;54.08
59419;BME280;45224;50.904;6.038;2023-05-20T07:58:57;100286.72;;;16.86;55.24